РПИ Бишкек

Руководитель РПИ

Evgeny Vygornitsky*

Инструкторы РПИ
Evgeny Vygornitsky (Supervisor)
Vitaliy Alekseyev (Instructor)
Входит в состав
ЗЦ Центральная Азия

Диспетчеры РПИ

Диспетчер Рейтинг Допуски *

Аэропорты РПИ

ICAO Город Название Погода
UCFM Бишкек Манас UCFM 010200Z VRB01MPS 9999 FEW066CB 20/09 Q1011 R26/0///95 NOSIG
UCFL Иссык-Куль Иссык-Куль UCFL 010200Z 08006MPS 9999 SCT030CB BKN100 20/10 Q1014 R07/CLRD95
UCFP Каракол Каракол